createdAt,value
2023-02-23T00:00:35.616Z,100.00
2023-02-23T00:03:04.340Z,100.00
2023-02-23T00:05:37.144Z,100.00
2023-02-23T00:08:05.270Z,100.00
2023-02-23T00:10:33.512Z,100.00
2023-02-23T00:13:01.549Z,100.00
2023-02-23T00:15:30.518Z,100.00
2023-02-23T00:17:58.730Z,100.00
2023-02-23T00:20:27.558Z,100.00
2023-02-23T00:22:56.398Z,100.00
2023-02-23T00:25:24.947Z,100.00
2023-02-23T00:27:52.630Z,100.00
2023-02-23T00:30:21.346Z,100.00
2023-02-23T00:32:52.372Z,100.00
2023-02-23T00:35:20.176Z,100.00
2023-02-23T00:37:49.545Z,100.00
2023-02-23T00:40:20.806Z,100.00
2023-02-23T00:42:49.845Z,100.00
2023-02-23T00:45:17.481Z,100.00
2023-02-23T00:47:48.348Z,100.00
2023-02-23T00:50:19.224Z,100.00
2023-02-23T00:52:47.180Z,100.00
2023-02-23T00:55:15.969Z,100.00
2023-02-23T00:57:43.625Z,100.00
2023-02-23T01:00:20.077Z,100.00
2023-02-23T01:02:48.804Z,100.00
2023-02-23T01:05:18.068Z,100.00
2023-02-23T01:07:47.276Z,100.00
2023-02-23T01:10:20.116Z,100.00
2023-02-23T01:12:50.134Z,100.00
2023-02-23T01:15:19.013Z,100.00
2023-02-23T01:17:47.600Z,100.00
2023-02-23T01:20:19.122Z,100.00
2023-02-23T01:22:49.306Z,100.00
2023-02-23T01:25:17.620Z,100.00
2023-02-23T01:27:46.107Z,100.00
2023-02-23T01:30:15.975Z,100.00
2023-02-23T01:32:44.847Z,100.00
2023-02-23T01:35:13.466Z,100.00
2023-02-23T01:37:44.010Z,100.00
2023-02-23T01:40:15.855Z,100.00
2023-02-23T01:42:46.166Z,100.00
2023-02-23T01:45:25.640Z,100.00
2023-02-23T01:47:55.800Z,100.00
2023-02-23T01:50:25.468Z,100.00
2023-02-23T01:52:56.631Z,100.00
2023-02-23T01:55:28.987Z,100.00
2023-02-23T01:58:04.042Z,100.00
2023-02-23T02:00:36.470Z,100.00
2023-02-23T02:03:12.061Z,100.00
2023-02-23T02:05:40.914Z,100.00
2023-02-23T02:08:11.510Z,100.00
2023-02-23T02:10:45.737Z,100.00
2023-02-23T02:13:21.717Z,100.00
2023-02-23T02:16:13.389Z,100.00
2023-02-23T02:18:55.114Z,100.00
2023-02-23T02:21:40.061Z,100.00
2023-02-23T02:24:47.423Z,100.00
2023-02-23T02:27:26.771Z,100.00
2023-02-23T02:30:39.336Z,100.00
2023-02-23T02:33:55.442Z,100.00
2023-02-23T02:36:59.481Z,100.00
2023-02-23T02:39:36.538Z,100.00
2023-02-23T02:42:17.972Z,100.00
2023-02-23T02:44:53.393Z,100.00
2023-02-23T02:47:27.939Z,100.00
2023-02-23T02:50:04.185Z,100.00
2023-02-23T02:52:40.109Z,100.00
2023-02-23T02:55:16.663Z,100.00
2023-02-23T02:57:47.057Z,100.00
2023-02-23T03:00:36.947Z,100.00
2023-02-23T03:03:22.113Z,100.00
2023-02-23T03:06:12.707Z,100.00
2023-02-23T03:09:07.093Z,100.00
2023-02-23T03:11:58.612Z,100.00
2023-02-23T03:14:51.962Z,100.00
2023-02-23T03:17:48.922Z,100.00
2023-02-23T03:20:44.159Z,100.00
2023-02-23T03:23:38.113Z,100.00
2023-02-23T03:26:30.920Z,100.00
2023-02-23T03:29:23.000Z,100.00
2023-02-23T03:32:18.212Z,100.00
2023-02-23T03:35:10.470Z,100.00
2023-02-23T03:38:00.766Z,100.00
2023-02-23T03:40:51.915Z,100.00
2023-02-23T03:43:45.124Z,100.00
2023-02-23T03:46:32.747Z,100.00
2023-02-23T03:49:22.732Z,100.00
2023-02-23T03:52:12.288Z,100.00
2023-02-23T03:55:03.623Z,100.00
2023-02-23T03:57:52.863Z,100.00
2023-02-23T04:00:44.940Z,100.00
2023-02-23T04:03:33.781Z,100.00
2023-02-23T04:06:20.472Z,100.00
2023-02-23T04:09:08.753Z,100.00
2023-02-23T04:12:03.600Z,100.00
2023-02-23T04:14:36.423Z,100.00
2023-02-23T04:17:06.245Z,100.00
2023-02-23T04:19:33.774Z,100.00
2023-02-23T04:22:01.338Z,100.00
2023-02-23T04:24:29.637Z,100.00
2023-02-23T04:26:57.151Z,100.00
2023-02-23T04:29:25.022Z,100.00
2023-02-23T04:31:54.074Z,100.00
2023-02-23T04:34:23.018Z,100.00
2023-02-23T04:36:51.225Z,100.00
2023-02-23T04:39:18.923Z,100.00
2023-02-23T04:41:48.875Z,100.00
2023-02-23T04:44:16.413Z,100.00
2023-02-23T04:46:44.304Z,100.00
2023-02-23T04:49:12.208Z,100.00
2023-02-23T04:51:41.084Z,100.00
2023-02-23T04:54:10.370Z,100.00
2023-02-23T04:56:39.307Z,100.00
2023-02-23T04:59:06.834Z,100.00
2023-02-23T05:01:34.479Z,100.00
2023-02-23T05:04:02.087Z,100.00
2023-02-23T05:06:31.859Z,100.00
2023-02-23T05:09:00.799Z,100.00
2023-02-23T05:11:28.335Z,100.00
2023-02-23T05:13:56.168Z,100.00
2023-02-23T05:16:23.735Z,100.00
2023-02-23T05:18:52.111Z,100.00
2023-02-23T05:21:19.868Z,100.00
2023-02-23T05:23:47.851Z,100.00
2023-02-23T05:26:16.758Z,100.00
2023-02-23T05:28:44.538Z,100.00
2023-02-23T05:31:12.493Z,100.00
2023-02-23T05:33:42.493Z,100.00
2023-02-23T05:36:11.899Z,100.00
2023-02-23T05:38:39.811Z,100.00
2023-02-23T05:41:07.956Z,100.00
2023-02-23T05:43:36.850Z,100.00
2023-02-23T05:46:07.603Z,100.00
2023-02-23T05:48:35.674Z,100.00
2023-02-23T05:51:03.627Z,100.00
2023-02-23T05:53:31.300Z,100.00
2023-02-23T05:55:58.933Z,100.00
2023-02-23T05:58:26.566Z,100.00
2023-02-23T06:00:55.632Z,100.00
2023-02-23T06:03:23.550Z,100.00
2023-02-23T06:05:52.024Z,100.00
2023-02-23T06:08:20.108Z,100.00
2023-02-23T06:10:48.324Z,100.00
2023-02-23T06:13:16.282Z,100.00
2023-02-23T06:15:45.105Z,100.00
2023-02-23T06:18:14.106Z,100.00
2023-02-23T06:20:41.804Z,100.00
2023-02-23T06:23:09.354Z,100.00
2023-02-23T06:25:36.882Z,100.00
2023-02-23T06:28:05.613Z,100.00
2023-02-23T06:30:33.153Z,100.00
2023-02-23T06:33:00.973Z,100.00
2023-02-23T06:35:30.145Z,100.00
2023-02-23T06:37:57.775Z,100.00
2023-02-23T06:40:25.666Z,100.00
2023-02-23T06:42:53.593Z,100.00
2023-02-23T06:45:21.166Z,100.00
2023-02-23T06:47:48.901Z,100.00
2023-02-23T06:50:16.900Z,100.00
2023-02-23T06:52:45.964Z,100.00
2023-02-23T06:55:14.342Z,100.00
2023-02-23T06:57:42.540Z,100.00
2023-02-23T07:00:12.566Z,100.00
2023-02-23T07:02:40.232Z,100.00
2023-02-23T07:05:08.351Z,100.00
2023-02-23T07:07:35.975Z,100.00
2023-02-23T07:10:05.396Z,99.35
2023-02-23T07:12:33.400Z,99.19
2023-02-23T07:15:01.204Z,100.00
2023-02-23T07:17:28.928Z,99.85
2023-02-23T07:19:56.498Z,100.00
2023-02-23T07:22:25.279Z,100.00
2023-02-23T07:24:52.790Z,100.00
2023-02-23T07:27:21.717Z,100.00
2023-02-23T07:29:49.230Z,100.00
2023-02-23T07:32:16.934Z,100.00
2023-02-23T07:34:45.808Z,100.00
2023-02-23T07:37:13.338Z,100.00
2023-02-23T07:39:40.876Z,100.00
2023-02-23T07:42:08.407Z,100.00
2023-02-23T07:44:38.113Z,100.00
2023-02-23T07:47:05.790Z,100.00
2023-02-23T07:49:34.208Z,100.00
2023-02-23T07:52:01.836Z,100.00
2023-02-23T07:54:29.869Z,100.00
2023-02-23T07:56:57.537Z,100.00
2023-02-23T07:59:25.285Z,100.00
2023-02-23T08:01:54.194Z,100.00
2023-02-23T08:04:21.848Z,100.00
2023-02-23T08:06:49.401Z,100.00
2023-02-23T08:09:16.929Z,100.00
2023-02-23T08:11:45.014Z,100.00
2023-02-23T08:14:12.980Z,100.00
2023-02-23T08:16:40.613Z,100.00
2023-02-23T08:19:10.987Z,100.00
2023-02-23T08:21:38.752Z,100.00
2023-02-23T08:24:07.327Z,100.00
2023-02-23T08:26:36.582Z,100.00
2023-02-23T08:29:04.187Z,100.00
2023-02-23T08:31:31.947Z,100.00
2023-02-23T08:34:00.021Z,100.00
2023-02-23T08:36:29.384Z,100.00
2023-02-23T08:38:57.426Z,100.00
2023-02-23T08:41:25.488Z,100.00
2023-02-23T08:43:53.044Z,100.00
2023-02-23T08:46:22.192Z,100.00
2023-02-23T08:48:49.737Z,100.00
2023-02-23T08:51:17.395Z,100.00
2023-02-23T08:53:48.862Z,100.00
2023-02-23T08:56:16.394Z,99.65
2023-02-23T08:58:44.577Z,99.98
2023-02-23T09:01:18.848Z,100.00
2023-02-23T09:03:46.705Z,99.85
2023-02-23T09:06:17.929Z,97.41
2023-02-23T09:08:45.738Z,94.84
2023-02-23T09:11:14.581Z,94.32
2023-02-23T09:13:42.190Z,94.62
2023-02-23T09:16:10.028Z,95.05
2023-02-23T09:18:38.731Z,93.80
2023-02-23T09:21:08.461Z,92.25
2023-02-23T09:23:37.039Z,90.09
2023-02-23T09:26:05.470Z,90.16
2023-02-23T09:28:34.920Z,89.66
2023-02-23T09:31:07.355Z,89.11
2023-02-23T09:33:35.026Z,89.07
2023-02-23T09:36:05.852Z,87.49
2023-02-23T09:38:33.432Z,87.77
2023-02-23T09:41:01.002Z,87.17
2023-02-23T09:43:34.587Z,86.94
2023-02-23T09:46:09.994Z,84.13
2023-02-23T09:48:37.607Z,84.62
2023-02-23T09:51:09.479Z,82.94
2023-02-23T09:53:40.690Z,81.46
2023-02-23T09:56:14.708Z,81.79
2023-02-23T09:58:42.634Z,80.83
2023-02-23T10:01:50.480Z,79.19
2023-02-23T10:04:23.602Z,78.27
2023-02-23T10:06:57.190Z,77.61
2023-02-23T10:09:33.000Z,77.89
2023-02-23T10:12:08.385Z,76.74
2023-02-23T10:14:57.160Z,77.78
2023-02-23T10:17:36.446Z,76.50
2023-02-23T10:20:13.958Z,74.64
2023-02-23T10:22:42.139Z,74.97
2023-02-23T10:25:14.221Z,74.85
2023-02-23T10:27:45.056Z,74.33
2023-02-23T10:30:20.731Z,74.70
2023-02-23T10:32:55.170Z,74.99
2023-02-23T10:35:24.478Z,75.35
2023-02-23T10:37:53.722Z,74.24
2023-02-23T10:40:24.404Z,75.83
2023-02-23T10:42:53.357Z,76.15
2023-02-23T10:45:24.562Z,74.78
2023-02-23T10:47:57.985Z,75.12
2023-02-23T10:50:28.892Z,75.57
2023-02-23T10:53:00.879Z,76.35
2023-02-23T10:55:30.296Z,76.31
2023-02-23T10:58:16.865Z,76.39
2023-02-23T11:00:53.430Z,76.28
2023-02-23T11:03:28.677Z,75.25
2023-02-23T11:05:56.827Z,74.65
2023-02-23T11:08:29.242Z,75.20
2023-02-23T11:10:59.345Z,75.51
2023-02-23T11:13:29.592Z,75.03
2023-02-23T11:16:02.323Z,75.24
2023-02-23T11:18:32.140Z,74.68
2023-02-23T11:21:00.173Z,75.25
2023-02-23T11:23:30.752Z,75.81
2023-02-23T11:26:01.147Z,76.44
2023-02-23T11:28:32.500Z,76.13
2023-02-23T11:31:05.669Z,76.29
2023-02-23T11:33:37.205Z,75.89
2023-02-23T11:36:26.481Z,76.99
2023-02-23T11:39:03.128Z,76.92
2023-02-23T11:41:31.732Z,76.82
2023-02-23T11:44:02.841Z,76.54
2023-02-23T11:46:33.790Z,76.35
2023-02-23T11:49:06.669Z,75.57
2023-02-23T11:51:36.787Z,76.00
2023-02-23T11:54:06.053Z,75.10
2023-02-23T11:56:36.084Z,74.07
2023-02-23T11:59:08.279Z,74.79
2023-02-23T12:01:43.906Z,74.81
2023-02-23T12:04:26.285Z,74.26
2023-02-23T12:07:25.683Z,74.23
2023-02-23T12:10:00.264Z,75.10
2023-02-23T12:12:30.806Z,74.89
2023-02-23T12:15:03.348Z,74.20
2023-02-23T12:17:37.485Z,74.78
2023-02-23T12:20:13.430Z,75.45
2023-02-23T12:22:45.951Z,75.81
2023-02-23T12:25:22.929Z,72.84
2023-02-23T12:28:05.090Z,73.52
2023-02-23T12:30:44.848Z,72.78
2023-02-23T12:33:18.085Z,71.97
2023-02-23T12:35:55.374Z,72.48
2023-02-23T12:38:30.834Z,72.48
2023-02-23T12:41:06.517Z,72.81
2023-02-23T12:43:40.694Z,73.60
2023-02-23T12:46:13.894Z,71.96
2023-02-23T12:48:50.609Z,72.63
2023-02-23T12:51:28.528Z,73.10
2023-02-23T12:53:56.162Z,72.05
2023-02-23T12:56:36.475Z,70.44
2023-02-23T12:59:21.819Z,70.94
2023-02-23T13:01:54.279Z,70.10
2023-02-23T13:04:39.882Z,70.76
2023-02-23T13:07:18.011Z,70.40
2023-02-23T13:09:56.520Z,70.74
2023-02-23T13:12:32.498Z,69.91
2023-02-23T13:15:10.945Z,69.37
2023-02-23T13:17:44.551Z,69.68
2023-02-23T13:20:19.616Z,69.75
2023-02-23T13:22:52.214Z,68.70
2023-02-23T13:25:34.614Z,69.64
2023-02-23T13:28:02.994Z,67.74
2023-02-23T13:30:33.283Z,68.19
2023-02-23T13:33:04.830Z,70.77
2023-02-23T13:35:36.568Z,67.77
2023-02-23T13:38:15.332Z,66.25
2023-02-23T13:40:48.511Z,66.53
2023-02-23T13:43:23.252Z,67.65
2023-02-23T13:46:06.118Z,69.01
2023-02-23T13:48:56.026Z,71.00
2023-02-23T13:51:35.488Z,71.54
2023-02-23T13:54:22.824Z,71.84
2023-02-23T13:56:54.150Z,70.97
2023-02-23T13:59:24.329Z,70.12
2023-02-23T14:01:54.197Z,70.58
2023-02-23T14:04:24.978Z,70.72
2023-02-23T14:06:56.583Z,69.68
2023-02-23T14:09:31.154Z,69.79
2023-02-23T14:12:06.085Z,68.37
2023-02-23T14:14:45.478Z,68.12
2023-02-23T14:17:51.744Z,67.61
2023-02-23T14:20:37.046Z,66.45
2023-02-23T14:23:41.267Z,65.14
2023-02-23T14:26:17.574Z,65.58
2023-02-23T14:28:50.298Z,65.87
2023-02-23T14:31:22.475Z,67.20
2023-02-23T14:33:57.450Z,68.49
2023-02-23T14:36:36.984Z,68.36
2023-02-23T14:39:10.023Z,68.28
2023-02-23T14:41:46.357Z,68.24
2023-02-23T14:44:28.190Z,69.33
2023-02-23T14:47:01.386Z,70.03
2023-02-23T14:49:32.621Z,69.25
2023-02-23T14:52:07.398Z,69.41
2023-02-23T14:54:36.643Z,70.57
2023-02-23T14:57:07.242Z,71.38
2023-02-23T14:59:39.328Z,71.94
2023-02-23T15:02:11.596Z,72.44
2023-02-23T15:04:39.732Z,73.07
2023-02-23T15:07:08.657Z,73.36
2023-02-23T15:09:41.798Z,74.35
2023-02-23T15:12:20.207Z,74.81
2023-02-23T15:14:50.580Z,75.91
2023-02-23T15:17:21.872Z,75.94
2023-02-23T15:20:00.056Z,75.71
2023-02-23T15:22:36.275Z,76.60
2023-02-23T15:25:14.522Z,74.94
2023-02-23T15:27:45.518Z,74.84
2023-02-23T15:30:23.658Z,74.39
2023-02-23T15:33:01.215Z,74.79
2023-02-23T15:35:30.207Z,74.95
2023-02-23T15:38:13.990Z,74.35
2023-02-23T15:40:46.712Z,74.58
2023-02-23T15:43:15.791Z,74.67
2023-02-23T15:45:49.394Z,75.30
2023-02-23T15:48:20.785Z,75.53
2023-02-23T15:50:50.986Z,76.48
2023-02-23T15:53:28.909Z,76.35
2023-02-23T15:56:00.835Z,76.75
2023-02-23T15:58:31.819Z,77.12
2023-02-23T16:01:05.638Z,77.41
2023-02-23T16:03:36.892Z,77.81
2023-02-23T16:06:06.926Z,78.23
2023-02-23T16:08:36.894Z,78.68
2023-02-23T16:11:11.858Z,78.84
2023-02-23T16:13:44.560Z,79.37
2023-02-23T16:16:20.204Z,79.40
2023-02-23T16:18:53.984Z,79.79
2023-02-23T16:21:23.445Z,80.09
2023-02-23T16:23:53.756Z,80.44
2023-02-23T16:26:25.729Z,80.47
2023-02-23T16:28:59.606Z,81.12
2023-02-23T16:31:43.414Z,81.03
2023-02-23T16:34:24.636Z,81.29
2023-02-23T16:36:57.644Z,81.87
2023-02-23T16:39:29.141Z,81.94
2023-02-23T16:41:58.551Z,82.44
2023-02-23T16:44:41.408Z,82.51
2023-02-23T16:47:36.147Z,83.03
2023-02-23T16:50:20.231Z,83.41
2023-02-23T16:52:51.723Z,83.60
2023-02-23T16:55:25.370Z,84.85
2023-02-23T16:57:55.436Z,85.02
2023-02-23T17:00:27.013Z,85.55
2023-02-23T17:02:55.685Z,86.44
2023-02-23T17:05:24.474Z,86.80
2023-02-23T17:07:52.942Z,87.15
2023-02-23T17:10:26.695Z,87.69
2023-02-23T17:12:55.738Z,88.43
2023-02-23T17:15:27.451Z,89.26
2023-02-23T17:17:56.089Z,90.41
2023-02-23T17:20:25.906Z,91.22
2023-02-23T17:22:54.872Z,91.55
2023-02-23T17:25:26.442Z,92.82
2023-02-23T17:27:54.385Z,93.24
2023-02-23T17:30:22.996Z,94.49
2023-02-23T17:32:53.156Z,94.32
2023-02-23T17:35:21.021Z,94.87
2023-02-23T17:37:48.686Z,95.60
2023-02-23T17:40:18.390Z,95.63
2023-02-23T17:42:45.979Z,96.32
2023-02-23T17:45:13.570Z,96.83
2023-02-23T17:47:42.552Z,97.56
2023-02-23T17:50:12.521Z,97.55
2023-02-23T17:52:40.088Z,98.02
2023-02-23T17:55:08.785Z,98.60
2023-02-23T17:57:36.686Z,99.10
2023-02-23T18:00:06.840Z,98.83
2023-02-23T18:02:39.562Z,98.97
2023-02-23T18:05:08.123Z,99.41
2023-02-23T18:07:37.669Z,99.97
2023-02-23T18:10:05.932Z,99.99
2023-02-23T18:12:34.045Z,99.83
2023-02-23T18:15:01.649Z,100.00
2023-02-23T18:17:32.422Z,100.00
2023-02-23T18:20:00.308Z,100.00
2023-02-23T18:22:28.262Z,100.00
2023-02-23T18:24:58.238Z,100.00
2023-02-23T18:27:26.133Z,100.00
2023-02-23T18:29:53.746Z,100.00
2023-02-23T18:32:21.529Z,100.00
2023-02-23T18:34:49.316Z,100.00
2023-02-23T18:37:25.436Z,100.00
2023-02-23T18:39:54.370Z,100.00
2023-02-23T18:42:23.405Z,100.00
2023-02-23T18:44:50.986Z,100.00
2023-02-23T18:47:19.173Z,100.00
2023-02-23T18:49:47.628Z,100.00
2023-02-23T18:52:15.389Z,100.00
2023-02-23T18:54:42.952Z,100.00
2023-02-23T18:57:10.550Z,100.00
2023-02-23T18:59:39.489Z,100.00
2023-02-23T19:02:07.131Z,100.00
2023-02-23T19:04:36.691Z,100.00
2023-02-23T19:07:04.346Z,100.00
2023-02-23T19:09:32.490Z,100.00
2023-02-23T19:12:00.241Z,100.00
2023-02-23T19:14:47.824Z,100.00
2023-02-23T19:17:16.687Z,100.00
2023-02-23T19:19:44.540Z,100.00
2023-02-23T19:22:12.184Z,100.00
2023-02-23T19:24:40.638Z,100.00
2023-02-23T19:27:09.973Z,100.00
2023-02-23T19:29:37.808Z,100.00
2023-02-23T19:32:06.173Z,100.00
2023-02-23T19:34:35.234Z,100.00
2023-02-23T19:37:02.947Z,100.00
2023-02-23T19:39:30.950Z,100.00
2023-02-23T19:41:58.584Z,100.00
2023-02-23T19:44:26.176Z,100.00
2023-02-23T19:46:53.902Z,100.00
2023-02-23T19:49:21.520Z,100.00
2023-02-23T19:51:50.670Z,100.00
2023-02-23T19:54:18.242Z,100.00
2023-02-23T19:56:46.027Z,100.00
2023-02-23T19:59:13.710Z,100.00
2023-02-23T20:01:43.443Z,100.00
2023-02-23T20:04:10.988Z,100.00
2023-02-23T20:06:44.531Z,100.00
2023-02-23T20:09:14.163Z,100.00
2023-02-23T20:11:42.582Z,100.00
2023-02-23T20:14:12.273Z,100.00
2023-02-23T20:16:39.947Z,100.00
2023-02-23T20:19:07.776Z,100.00
2023-02-23T20:21:36.629Z,100.00
2023-02-23T20:24:05.559Z,100.00
2023-02-23T20:26:36.853Z,100.00
2023-02-23T20:29:06.677Z,100.00
2023-02-23T20:31:36.458Z,100.00
2023-02-23T20:34:07.493Z,100.00
2023-02-23T20:36:35.314Z,100.00
2023-02-23T20:39:03.682Z,100.00
2023-02-23T20:41:31.940Z,100.00
2023-02-23T20:44:01.675Z,100.00
2023-02-23T20:46:30.547Z,100.00
2023-02-23T20:48:59.413Z,100.00
2023-02-23T20:51:27.596Z,100.00
2023-02-23T20:53:55.669Z,100.00
2023-02-23T20:56:23.540Z,100.00
2023-02-23T20:58:54.520Z,100.00
2023-02-23T21:01:26.190Z,100.00
2023-02-23T21:03:55.087Z,100.00
2023-02-23T21:06:24.426Z,100.00
2023-02-23T21:08:55.773Z,100.00
2023-02-23T21:11:26.418Z,100.00
2023-02-23T21:13:54.121Z,100.00
2023-02-23T21:16:24.467Z,100.00
2023-02-23T21:19:03.845Z,100.00
2023-02-23T21:21:32.733Z,100.00
2023-02-23T21:24:00.700Z,100.00
2023-02-23T21:26:30.379Z,100.00
2023-02-23T21:28:58.227Z,100.00
2023-02-23T21:31:27.379Z,100.00
2023-02-23T21:33:55.405Z,100.00
2023-02-23T21:36:23.229Z,100.00
2023-02-23T21:38:51.243Z,100.00
2023-02-23T21:41:19.174Z,100.00
2023-02-23T21:43:47.671Z,100.00
2023-02-23T21:46:17.207Z,100.00
2023-02-23T21:48:46.125Z,100.00
2023-02-23T21:51:15.987Z,100.00
2023-02-23T21:53:45.190Z,100.00
2023-02-23T21:56:14.780Z,100.00
2023-02-23T21:58:46.195Z,100.00
2023-02-23T22:01:16.096Z,100.00
2023-02-23T22:03:44.985Z,100.00
2023-02-23T22:06:14.770Z,100.00
2023-02-23T22:08:44.724Z,100.00
2023-02-23T22:11:17.480Z,100.00
2023-02-23T22:13:45.639Z,100.00
2023-02-23T22:16:14.604Z,100.00
2023-02-23T22:18:42.956Z,100.00
2023-02-23T22:21:11.593Z,100.00
2023-02-23T22:23:41.640Z,100.00
2023-02-23T22:26:09.550Z,100.00
2023-02-23T22:28:37.567Z,100.00
2023-02-23T22:31:08.165Z,100.00
2023-02-23T22:33:36.527Z,100.00
2023-02-23T22:36:06.645Z,100.00
2023-02-23T22:38:34.701Z,100.00
2023-02-23T22:41:07.209Z,100.00
2023-02-23T22:43:35.075Z,100.00
2023-02-23T22:46:02.714Z,100.00
2023-02-23T22:48:30.319Z,100.00
2023-02-23T22:50:58.855Z,100.00
2023-02-23T22:53:27.500Z,100.00
2023-02-23T22:55:57.228Z,100.00
2023-02-23T22:58:27.300Z,100.00
2023-02-23T23:01:04.639Z,100.00
2023-02-23T23:03:35.352Z,100.00
2023-02-23T23:06:03.785Z,100.00
2023-02-23T23:08:36.312Z,100.00
2023-02-23T23:11:09.280Z,100.00
2023-02-23T23:13:45.064Z,100.00
2023-02-23T23:16:28.916Z,100.00
2023-02-23T23:19:02.227Z,100.00
2023-02-23T23:21:32.335Z,100.00
2023-02-23T23:24:02.032Z,100.00
2023-02-23T23:26:31.709Z,100.00
2023-02-23T23:29:04.644Z,100.00
2023-02-23T23:31:34.610Z,99.67
2023-02-23T23:34:04.801Z,98.45
2023-02-23T23:36:37.123Z,98.01
2023-02-23T23:39:06.014Z,97.63
2023-02-23T23:41:35.226Z,97.05
2023-02-23T23:44:05.724Z,96.45
2023-02-23T23:46:37.408Z,96.38
2023-02-23T23:49:08.160Z,97.68
2023-02-23T23:51:38.714Z,97.62
2023-02-23T23:54:08.533Z,97.45
2023-02-23T23:56:37.264Z,97.88
2023-02-23T23:59:08.087Z,98.29
